createdAt,value
2019-01-25T00:01:28.551Z,99894.00
2019-01-25T00:06:29.809Z,99897.00
2019-01-25T00:11:31.156Z,99903.00
2019-01-25T00:16:32.398Z,99900.00
2019-01-25T00:21:33.655Z,99906.00
2019-01-25T00:26:34.885Z,99891.00
2019-01-25T00:31:36.122Z,99893.00
2019-01-25T00:36:37.363Z,99885.00
2019-01-25T00:41:38.626Z,99882.00
2019-01-25T00:46:39.859Z,99888.00
2019-01-25T00:51:41.131Z,99902.00
2019-01-25T00:56:42.600Z,99889.00
2019-01-25T01:01:43.955Z,99893.00
2019-01-25T01:06:45.203Z,99905.00
2019-01-25T01:11:46.480Z,99912.00
2019-01-25T01:16:47.721Z,99900.00
2019-01-25T01:21:48.966Z,99903.00
2019-01-25T01:26:50.202Z,99913.00
2019-01-25T01:31:51.450Z,99897.00
2019-01-25T01:36:52.717Z,99906.00
2019-01-25T01:41:53.964Z,99914.00
2019-01-25T01:46:55.229Z,99912.00
2019-01-25T01:51:56.476Z,99912.00
2019-01-25T01:56:57.721Z,99897.00
2019-01-25T02:01:58.972Z,99912.00
2019-01-25T02:07:00.232Z,99910.00
2019-01-25T02:12:01.475Z,99921.00
2019-01-25T02:17:03.143Z,99901.00
2019-01-25T02:22:04.378Z,99913.00
2019-01-25T02:27:05.727Z,99902.00
2019-01-25T02:32:08.883Z,99882.00
2019-01-25T02:37:10.121Z,99881.00
2019-01-25T02:42:11.368Z,99879.00
2019-01-25T02:47:14.554Z,99884.00
2019-01-25T02:52:15.795Z,99898.00
2019-01-25T02:57:18.950Z,99908.00
2019-01-25T03:02:20.200Z,99896.00
2019-01-25T03:07:21.457Z,99917.00
2019-01-25T03:12:25.337Z,99910.00
2019-01-25T03:17:26.587Z,99904.00
2019-01-25T03:22:29.773Z,99910.00
2019-01-25T03:27:31.166Z,99894.00
2019-01-25T03:32:32.455Z,99902.00
2019-01-25T03:37:35.702Z,99904.00
2019-01-25T03:42:43.602Z,99902.00
2019-01-25T03:47:45.082Z,99910.00
2019-01-25T03:52:46.425Z,99903.00
2019-01-25T03:57:47.988Z,99910.00
2019-01-25T04:02:52.343Z,99907.00
2019-01-25T04:07:53.784Z,99920.00
2019-01-25T04:12:56.145Z,99908.00
2019-01-25T04:18:00.543Z,99902.00
2019-01-25T04:23:02.003Z,99922.00
2019-01-25T04:28:09.367Z,99921.00
2019-01-25T04:33:10.726Z,99926.00
2019-01-25T04:38:11.979Z,99910.00
2019-01-25T04:43:13.222Z,99917.00
2019-01-25T04:48:14.792Z,99922.00
2019-01-25T04:53:16.049Z,99921.00
2019-01-25T04:58:17.710Z,99940.00
2019-01-25T05:03:19.267Z,99941.00
2019-01-25T05:08:21.210Z,99948.00
2019-01-25T05:13:22.450Z,99946.00
2019-01-25T05:18:23.718Z,99954.00
2019-01-25T05:23:24.978Z,99959.00
2019-01-25T05:28:26.227Z,99946.00
2019-01-25T05:33:27.776Z,99952.00
2019-01-25T05:38:29.050Z,99952.00
2019-01-25T05:43:37.418Z,99955.00
2019-01-25T05:48:38.960Z,99949.00
2019-01-25T05:53:47.270Z,99946.00
2019-01-25T05:58:50.422Z,99961.00
2019-01-25T06:03:54.864Z,99964.00
2019-01-25T06:08:57.108Z,99967.00
2019-01-25T06:13:58.347Z,99976.00
2019-01-25T06:19:01.516Z,99995.00
2019-01-25T06:24:03.065Z,99983.00
2019-01-25T06:29:04.305Z,99992.00
2019-01-25T06:34:07.574Z,100002.00
2019-01-25T06:39:08.928Z,100011.00
2019-01-25T06:44:12.806Z,100013.00
2019-01-25T06:49:14.063Z,100016.00
2019-01-25T06:54:15.314Z,100015.00
2019-01-25T06:59:18.046Z,100017.00
2019-01-25T07:04:19.401Z,100018.00
2019-01-25T07:09:20.647Z,100028.00
2019-01-25T07:14:21.904Z,100032.00
2019-01-25T07:19:23.141Z,100022.00
2019-01-25T07:24:24.381Z,100041.00
2019-01-25T07:29:25.697Z,100040.00
2019-01-25T07:34:26.964Z,100044.00
2019-01-25T07:39:28.317Z,100045.00
2019-01-25T07:44:29.571Z,100055.00
2019-01-25T07:49:30.813Z,100052.00
2019-01-25T07:54:32.103Z,100051.00
2019-01-25T07:59:33.336Z,100057.00
2019-01-25T08:04:34.600Z,100062.00
2019-01-25T08:09:35.882Z,100061.00
2019-01-25T08:14:37.104Z,100057.00
2019-01-25T08:19:38.336Z,100063.00
2019-01-25T08:24:39.599Z,100066.00
2019-01-25T08:29:40.906Z,100081.00
2019-01-25T08:34:42.138Z,100082.00
2019-01-25T08:39:43.382Z,100088.00
2019-01-25T08:44:47.545Z,100082.00
2019-01-25T08:49:48.849Z,100082.00
2019-01-25T08:54:50.277Z,100086.00
2019-01-25T08:59:51.492Z,100097.00
2019-01-25T09:04:52.752Z,100104.00
2019-01-25T09:09:54.021Z,100098.00
2019-01-25T09:14:55.279Z,100111.00
2019-01-25T09:19:56.537Z,100108.00
2019-01-25T09:24:57.787Z,100117.00
2019-01-25T09:29:59.050Z,100119.00
2019-01-25T09:35:00.366Z,100120.00
2019-01-25T09:40:02.821Z,100128.00
2019-01-25T09:45:08.878Z,100125.00
2019-01-25T09:50:21.660Z,100131.00
2019-01-25T09:55:24.908Z,100133.00
2019-01-25T10:00:37.836Z,100136.00
2019-01-25T10:05:39.090Z,100129.00
2019-01-25T10:10:40.354Z,100134.00
2019-01-25T10:15:41.806Z,100129.00
2019-01-25T10:20:43.083Z,100136.00
2019-01-25T10:25:44.323Z,100136.00
2019-01-25T10:30:45.584Z,100136.00
2019-01-25T10:35:47.065Z,100128.00
2019-01-25T10:40:48.310Z,100126.00
2019-01-25T10:45:49.559Z,100124.00
2019-01-25T10:50:51.155Z,100120.00
2019-01-25T10:55:52.402Z,100116.00
2019-01-25T11:00:53.779Z,100105.00
2019-01-25T11:05:55.061Z,100101.00
2019-01-25T11:10:56.331Z,100102.00
2019-01-25T11:15:57.583Z,100105.00
2019-01-25T11:20:58.853Z,100108.00
2019-01-25T11:26:00.105Z,100109.00
2019-01-25T11:31:01.475Z,100114.00
2019-01-25T11:36:03.233Z,100103.00
2019-01-25T11:41:05.041Z,100101.00
2019-01-25T11:46:06.257Z,100105.00
2019-01-25T11:51:07.512Z,100101.00
2019-01-25T11:56:08.970Z,100098.00
2019-01-25T12:01:10.222Z,100113.00
2019-01-25T12:06:11.512Z,100121.00
2019-01-25T12:11:12.767Z,100119.00
2019-01-25T12:16:14.198Z,100117.00
2019-01-25T12:21:15.565Z,100104.00
2019-01-25T12:26:16.829Z,100122.00
2019-01-25T12:31:18.091Z,100107.00
2019-01-25T12:36:19.372Z,100120.00
2019-01-25T12:41:20.603Z,100116.00
2019-01-25T12:46:21.868Z,100091.00
2019-01-25T12:51:23.674Z,100091.00
2019-01-25T12:56:24.933Z,100095.00
2019-01-25T13:01:26.198Z,100097.00
2019-01-25T13:06:28.070Z,100094.00
2019-01-25T13:11:29.440Z,100081.00
2019-01-25T13:16:30.814Z,100081.00
2019-01-25T13:21:32.210Z,100081.00
2019-01-25T13:26:33.576Z,100091.00
2019-01-25T13:31:35.055Z,100103.00
2019-01-25T13:36:36.401Z,100090.00
2019-01-25T13:41:37.691Z,100084.00
2019-01-25T13:46:38.990Z,100085.00
2019-01-25T13:51:40.349Z,100080.00
2019-01-25T13:56:41.636Z,100075.00
2019-01-25T14:01:42.893Z,100082.00
2019-01-25T14:06:44.244Z,100087.00
2019-01-25T14:11:45.501Z,100084.00
2019-01-25T14:16:46.774Z,100074.00
2019-01-25T14:21:48.029Z,100067.00
2019-01-25T14:26:49.296Z,100059.00
2019-01-25T14:31:51.495Z,100063.00
2019-01-25T14:36:52.749Z,100053.00
2019-01-25T14:41:54.023Z,100050.00
2019-01-25T14:46:55.310Z,100048.00
2019-01-25T14:51:56.602Z,100038.00
2019-01-25T14:56:57.877Z,100018.00
2019-01-25T15:01:59.117Z,100025.00
2019-01-25T15:07:00.395Z,100026.00
2019-01-25T15:12:01.756Z,100010.00
2019-01-25T15:17:03.140Z,100037.00
2019-01-25T15:22:04.496Z,100030.00
2019-01-25T15:27:05.761Z,100034.00
2019-01-25T15:32:07.018Z,100031.00
2019-01-25T15:37:08.384Z,100028.00
2019-01-25T15:42:09.655Z,100016.00
2019-01-25T15:47:10.961Z,100013.00
2019-01-25T15:52:12.217Z,100000.00
2019-01-25T15:57:13.460Z,100003.00
2019-01-25T16:02:14.737Z,100000.00
2019-01-25T16:07:15.973Z,100007.00
2019-01-25T16:12:17.261Z,100012.00
2019-01-25T16:17:18.630Z,100012.00
2019-01-25T16:22:19.879Z,100031.00
2019-01-25T16:27:21.157Z,100012.00
2019-01-25T16:32:22.415Z,100024.00
2019-01-25T16:37:23.686Z,100034.00
2019-01-25T16:42:24.936Z,100028.00
2019-01-25T16:47:26.221Z,100031.00
2019-01-25T16:52:27.475Z,100028.00
2019-01-25T16:57:28.750Z,100027.00
2019-01-25T17:02:30.009Z,100033.00
2019-01-25T17:07:31.290Z,100025.00
2019-01-25T17:12:32.642Z,100010.00
2019-01-25T17:17:33.938Z,100012.00
2019-01-25T17:22:35.219Z,100015.00
2019-01-25T17:27:36.666Z,100012.00
2019-01-25T17:32:37.950Z,100001.00
2019-01-25T17:37:39.237Z,100019.00
2019-01-25T17:42:40.800Z,100026.00
2019-01-25T17:47:42.212Z,100017.00
2019-01-25T17:52:43.667Z,100020.00
2019-01-25T17:57:45.037Z,100004.00
2019-01-25T18:02:46.505Z,100009.00
2019-01-25T18:07:47.860Z,99999.00
2019-01-25T18:12:49.526Z,100003.00
2019-01-25T18:17:51.002Z,100002.00
2019-01-25T18:22:52.586Z,99980.00
2019-01-25T18:28:11.155Z,99979.00
2019-01-25T18:33:12.445Z,99979.00
2019-01-25T18:38:13.823Z,99975.00
2019-01-25T18:43:15.385Z,99980.00
2019-01-25T18:48:16.872Z,99988.00
2019-01-25T18:53:18.154Z,99983.00
2019-01-25T18:58:19.422Z,99985.00
2019-01-25T19:03:21.126Z,99984.00
2019-01-25T19:08:22.485Z,99975.00
2019-01-25T19:13:23.809Z,99975.00
2019-01-25T19:18:25.082Z,99983.00
2019-01-25T19:23:26.469Z,99965.00
2019-01-25T19:28:27.754Z,99970.00
2019-01-25T19:33:29.075Z,99964.00
2019-01-25T19:38:30.447Z,99970.00
2019-01-25T19:43:31.953Z,99959.00
2019-01-25T19:48:33.383Z,99951.00
2019-01-25T19:53:34.766Z,99944.00
2019-01-25T19:58:36.149Z,99949.00
2019-01-25T20:03:37.900Z,99950.00
2019-01-25T20:08:39.649Z,99961.00
2019-01-25T20:13:42.271Z,99959.00
2019-01-25T20:18:43.651Z,99959.00
2019-01-25T20:23:45.070Z,99949.00
2019-01-25T20:28:46.349Z,99939.00
2019-01-25T20:33:47.726Z,99923.00
2019-01-25T20:38:49.117Z,99917.00
2019-01-25T20:43:53.002Z,99933.00
2019-01-25T20:48:54.283Z,99930.00
2019-01-25T20:53:55.564Z,99929.00
2019-01-25T20:58:57.032Z,99927.00
2019-01-25T21:03:58.268Z,99926.00
2019-01-25T21:08:59.575Z,99915.00
2019-01-25T21:14:00.937Z,99910.00
2019-01-25T21:19:02.320Z,99893.00
2019-01-25T21:24:04.038Z,99895.00
2019-01-25T21:29:05.290Z,99891.00
2019-01-25T21:34:06.750Z,99886.00
2019-01-25T21:39:09.221Z,99885.00
2019-01-25T21:44:10.517Z,99875.00
2019-01-25T21:49:14.573Z,99865.00
2019-01-25T21:54:15.840Z,99865.00
2019-01-25T21:59:17.111Z,99853.00
2019-01-25T22:04:20.158Z,99854.00
2019-01-25T22:09:21.515Z,99849.00
2019-01-25T22:14:22.792Z,99848.00
2019-01-25T22:19:24.126Z,99831.00
2019-01-25T22:24:25.330Z,99844.00
2019-01-25T22:29:26.602Z,99841.00
2019-01-25T22:34:30.099Z,99847.00
2019-01-25T22:39:31.381Z,99832.00
2019-01-25T22:44:32.843Z,99826.00
2019-01-25T22:49:34.120Z,99829.00
2019-01-25T22:54:35.364Z,99819.00
2019-01-25T22:59:36.637Z,99800.00
2019-01-25T23:04:52.095Z,99801.00
2019-01-25T23:09:53.345Z,99786.00
2019-01-25T23:14:54.593Z,99800.00
2019-01-25T23:19:55.861Z,99805.00
2019-01-25T23:24:57.117Z,99800.00
2019-01-25T23:29:58.399Z,99789.00
2019-01-25T23:34:59.791Z,99786.00
2019-01-25T23:40:01.144Z,99785.00
2019-01-25T23:45:04.820Z,99790.00
2019-01-25T23:50:08.549Z,99772.00
2019-01-25T23:55:10.497Z,99771.00
